createdAt,value
2023-03-06T00:01:33.026Z,5.65
2023-03-06T00:03:59.411Z,5.45
2023-03-06T00:06:25.909Z,6.28
2023-03-06T00:08:52.375Z,6.55
2023-03-06T00:11:18.782Z,5.20
2023-03-06T00:13:45.211Z,4.20
2023-03-06T00:16:11.685Z,7.65
2023-03-06T00:18:38.065Z,5.65
2023-03-06T00:21:07.724Z,5.70
2023-03-06T00:23:34.253Z,7.97
2023-03-06T00:26:00.646Z,9.15
2023-03-06T00:28:27.203Z,5.80
2023-03-06T00:30:53.613Z,5.68
2023-03-06T00:33:19.970Z,6.88
2023-03-06T00:35:46.361Z,9.45
2023-03-06T00:38:14.682Z,7.07
2023-03-06T00:40:41.293Z,6.43
2023-03-06T00:43:07.736Z,5.50
2023-03-06T00:45:34.215Z,5.43
2023-03-06T00:48:00.801Z,5.38
2023-03-06T00:50:27.729Z,6.07
2023-03-06T00:52:54.461Z,7.10
2023-03-06T00:55:20.874Z,7.63
2023-03-06T00:57:47.288Z,6.57
2023-03-06T01:00:14.690Z,6.35
2023-03-06T01:02:41.588Z,5.53
2023-03-06T01:05:09.118Z,10.07
2023-03-06T01:07:36.920Z,6.32
2023-03-06T01:10:07.838Z,8.95
2023-03-06T01:12:34.344Z,8.38
2023-03-06T01:15:00.696Z,7.68
2023-03-06T01:17:27.145Z,6.43
2023-03-06T01:19:53.496Z,8.48
2023-03-06T01:22:19.855Z,16.30
2023-03-06T01:24:46.237Z,9.27
2023-03-06T01:27:12.742Z,8.98
2023-03-06T01:29:39.085Z,8.68
2023-03-06T01:32:05.907Z,7.90
2023-03-06T01:34:32.366Z,7.50
2023-03-06T01:36:58.886Z,8.82
2023-03-06T01:39:25.354Z,7.85
2023-03-06T01:41:51.732Z,9.05
2023-03-06T01:44:18.115Z,13.52
2023-03-06T01:46:45.469Z,7.68
2023-03-06T01:49:30.384Z,9.55
2023-03-06T01:52:08.132Z,13.15
2023-03-06T01:54:40.390Z,11.77
2023-03-06T01:57:17.864Z,8.70
2023-03-06T01:59:45.226Z,12.73
2023-03-06T02:02:14.048Z,9.50
2023-03-06T02:04:42.392Z,8.82
2023-03-06T02:07:09.662Z,14.15
2023-03-06T02:09:38.212Z,9.25
2023-03-06T02:12:14.259Z,12.40
2023-03-06T02:14:42.409Z,10.40
2023-03-06T02:19:52.037Z,10.35
2023-03-06T02:22:18.809Z,9.85
2023-03-06T02:25:09.360Z,10.00
2023-03-06T02:27:35.932Z,11.40
2023-03-06T02:30:07.740Z,11.10
2023-03-06T02:32:34.192Z,11.32
2023-03-06T02:35:00.566Z,12.43
2023-03-06T02:37:28.872Z,11.48
2023-03-06T02:40:03.514Z,11.90
2023-03-06T02:42:30.077Z,13.02
2023-03-06T02:44:58.501Z,11.82
2023-03-06T02:47:25.059Z,11.40
2023-03-06T02:49:51.476Z,14.73
2023-03-06T02:52:18.151Z,13.10
2023-03-06T02:54:44.559Z,17.50
2023-03-06T02:57:11.017Z,13.77
2023-03-06T02:59:37.359Z,14.32
2023-03-06T03:02:03.821Z,13.10
2023-03-06T03:04:30.278Z,12.55
2023-03-06T03:06:56.644Z,13.70
2023-03-06T03:09:22.990Z,14.00
2023-03-06T03:11:49.371Z,16.88
2023-03-06T03:14:16.669Z,14.90
2023-03-06T03:16:43.017Z,15.63
2023-03-06T03:19:09.343Z,13.05
2023-03-06T03:21:35.766Z,14.38
2023-03-06T03:24:02.333Z,13.25
2023-03-06T03:26:28.736Z,14.65
2023-03-06T03:28:55.143Z,13.77
2023-03-06T03:31:21.771Z,13.20
2023-03-06T03:33:48.163Z,11.40
2023-03-06T03:36:14.666Z,11.82
2023-03-06T03:38:41.072Z,11.95
2023-03-06T03:41:07.465Z,11.52
2023-03-06T03:43:34.069Z,12.25
2023-03-06T03:46:00.564Z,11.57
2023-03-06T03:48:27.008Z,12.13
2023-03-06T03:50:53.401Z,11.68
2023-03-06T03:53:19.804Z,12.07
2023-03-06T03:55:47.811Z,13.85
2023-03-06T03:58:14.241Z,10.95
2023-03-06T04:00:40.621Z,12.50
2023-03-06T04:03:06.986Z,17.90
2023-03-06T04:05:33.884Z,13.07
2023-03-06T04:08:03.031Z,12.77
2023-03-06T04:10:29.535Z,14.30
2023-03-06T04:12:56.899Z,12.13
2023-03-06T04:15:23.541Z,11.27
2023-03-06T04:17:49.972Z,11.35
2023-03-06T04:20:16.670Z,12.15
2023-03-06T04:22:43.075Z,11.70
2023-03-06T04:25:09.858Z,11.15
2023-03-06T04:27:36.239Z,12.18
2023-03-06T04:30:02.909Z,13.52
2023-03-06T04:32:29.369Z,11.75
2023-03-06T04:34:55.756Z,11.68
2023-03-06T04:37:24.905Z,11.10
2023-03-06T04:39:51.774Z,11.93
2023-03-06T04:42:18.606Z,12.80
2023-03-06T04:44:45.333Z,11.63
2023-03-06T04:47:12.308Z,13.63
2023-03-06T04:49:38.685Z,10.98
2023-03-06T04:52:05.273Z,10.55
2023-03-06T04:54:31.665Z,9.10
2023-03-06T04:56:58.045Z,11.50
2023-03-06T04:59:24.479Z,9.65
2023-03-06T05:01:50.891Z,8.23
2023-03-06T05:04:17.311Z,10.23
2023-03-06T05:06:43.859Z,8.98
2023-03-06T05:09:10.241Z,9.27
2023-03-06T05:11:36.725Z,8.68
2023-03-06T05:14:03.204Z,11.05
2023-03-06T05:16:29.549Z,7.13
2023-03-06T05:18:55.908Z,7.80
2023-03-06T05:21:22.452Z,9.23
2023-03-06T05:23:48.822Z,7.20
2023-03-06T05:26:15.971Z,7.32
2023-03-06T05:28:42.568Z,7.10
2023-03-06T05:31:09.373Z,8.00
2023-03-06T05:33:36.609Z,7.80
2023-03-06T05:36:03.528Z,9.75
2023-03-06T05:38:29.926Z,9.77
2023-03-06T05:40:56.300Z,8.30
2023-03-06T05:43:22.738Z,7.38
2023-03-06T05:45:50.508Z,5.30
2023-03-06T05:48:17.004Z,6.90
2023-03-06T05:50:43.416Z,7.32
2023-03-06T05:53:09.897Z,6.10
2023-03-06T05:55:36.278Z,10.88
2023-03-06T05:58:02.887Z,7.63
2023-03-06T06:00:29.296Z,7.50
2023-03-06T06:02:55.640Z,5.50
2023-03-06T06:05:21.978Z,8.05
2023-03-06T06:07:48.457Z,7.78
2023-03-06T06:10:15.259Z,7.53
2023-03-06T06:12:41.750Z,7.38
2023-03-06T06:15:08.459Z,8.85
2023-03-06T06:17:34.813Z,6.13
2023-03-06T06:20:01.326Z,6.50
2023-03-06T06:22:27.731Z,6.47
2023-03-06T06:24:54.229Z,5.90
2023-03-06T06:27:20.816Z,6.07
2023-03-06T06:29:50.821Z,7.20
2023-03-06T06:32:17.317Z,4.93
2023-03-06T06:34:46.733Z,6.93
2023-03-06T06:37:13.323Z,5.90
2023-03-06T06:39:41.113Z,12.77
2023-03-06T06:42:28.571Z,14.93
2023-03-06T06:44:55.043Z,23.77
2023-03-06T06:47:24.188Z,10.35
2023-03-06T06:49:56.024Z,5.25
2023-03-06T06:52:23.958Z,6.50
2023-03-06T06:54:50.883Z,6.18
2023-03-06T06:57:17.483Z,8.75
2023-03-06T06:59:46.460Z,5.03
2023-03-06T07:02:15.624Z,5.18
2023-03-06T07:04:52.734Z,6.47
2023-03-06T07:07:25.344Z,4.15
2023-03-06T07:09:51.888Z,7.30
2023-03-06T07:12:18.442Z,5.60
2023-03-06T07:14:44.803Z,6.07
2023-03-06T07:17:11.179Z,5.15
2023-03-06T07:19:38.676Z,6.22
2023-03-06T07:22:07.529Z,5.13
2023-03-06T07:24:34.161Z,11.52
2023-03-06T07:27:00.549Z,3.47
2023-03-06T07:29:27.150Z,4.75
2023-03-06T07:31:53.607Z,4.28
2023-03-06T07:34:20.146Z,4.18
2023-03-06T07:36:46.622Z,3.88
2023-03-06T07:39:12.976Z,4.78
2023-03-06T07:41:39.348Z,4.15
2023-03-06T07:44:05.807Z,3.78
2023-03-06T07:46:32.363Z,3.83
2023-03-06T07:48:58.909Z,4.35
2023-03-06T07:51:25.449Z,4.88
2023-03-06T07:53:51.877Z,8.85
2023-03-06T07:56:18.342Z,6.72
2023-03-06T07:58:46.340Z,8.73
2023-03-06T08:01:15.795Z,7.68
2023-03-06T08:03:42.750Z,4.65
2023-03-06T08:06:32.186Z,6.97
2023-03-06T08:08:59.326Z,4.65
2023-03-06T08:11:30.044Z,4.57
2023-03-06T08:13:57.838Z,3.65
2023-03-06T08:18:52.412Z,4.38
2023-03-06T08:21:21.985Z,5.70
2023-03-06T08:23:48.871Z,6.55
2023-03-06T08:26:21.552Z,4.20
2023-03-06T08:28:48.107Z,9.65
2023-03-06T08:31:23.238Z,1.58
2023-03-06T08:33:49.837Z,2.05
2023-03-06T08:36:16.189Z,3.58
2023-03-06T08:38:42.682Z,3.75
2023-03-06T08:41:09.017Z,2.15
2023-03-06T08:43:36.079Z,1.42
2023-03-06T08:46:02.680Z,1.75
2023-03-06T08:48:29.306Z,4.22
2023-03-06T08:50:56.130Z,2.35
2023-03-06T08:53:36.651Z,1.85
2023-03-06T08:56:14.590Z,2.63
2023-03-06T08:58:40.936Z,4.03
2023-03-06T09:01:20.288Z,3.30
2023-03-06T09:03:47.133Z,2.88
2023-03-06T09:06:14.096Z,3.20
2023-03-06T09:08:43.235Z,3.55
2023-03-06T09:11:14.257Z,3.75
2023-03-06T09:13:41.986Z,4.07
2023-03-06T09:16:10.100Z,2.35
2023-03-06T09:18:36.834Z,2.85
2023-03-06T09:21:04.856Z,1.55
2023-03-06T09:23:31.582Z,7.93
2023-03-06T09:25:59.361Z,8.80
2023-03-06T09:28:25.955Z,3.97
2023-03-06T09:30:52.514Z,2.60
2023-03-06T09:33:19.621Z,6.47
2023-03-06T09:35:52.191Z,7.53
2023-03-06T09:38:19.783Z,4.85
2023-03-06T09:41:04.806Z,5.68
2023-03-06T09:43:35.916Z,5.95
2023-03-06T09:46:25.073Z,3.17
2023-03-06T09:49:10.413Z,3.92
2023-03-06T09:51:48.115Z,6.15
2023-03-06T09:54:16.141Z,4.13
2023-03-06T09:56:50.379Z,3.17
2023-03-06T09:59:21.549Z,4.10
2023-03-06T10:01:59.765Z,2.05
2023-03-06T10:04:43.461Z,2.60
2023-03-06T10:07:22.465Z,2.53
2023-03-06T10:10:15.972Z,4.82
2023-03-06T10:12:49.286Z,4.88
2023-03-06T10:15:36.099Z,3.08
2023-03-06T10:18:04.446Z,6.28
2023-03-06T10:20:41.315Z,2.38
2023-03-06T10:23:35.125Z,1.35
2023-03-06T10:26:07.072Z,4.43
2023-03-06T10:28:42.570Z,4.50
2023-03-06T10:31:23.298Z,2.55
2023-03-06T10:36:18.288Z,4.25
2023-03-06T10:38:48.296Z,5.50
2023-03-06T10:41:14.623Z,2.40
2023-03-06T10:43:47.998Z,4.55
2023-03-06T10:46:27.732Z,2.50
2023-03-06T10:49:00.250Z,3.55
2023-03-06T10:51:28.728Z,5.97
2023-03-06T10:53:57.171Z,3.70
2023-03-06T10:56:39.158Z,3.28
2023-03-06T10:59:17.172Z,2.38
2023-03-06T11:01:45.222Z,2.28
2023-03-06T11:04:16.252Z,3.25
2023-03-06T11:06:43.005Z,2.10
2023-03-06T11:09:15.458Z,4.63
2023-03-06T11:11:41.884Z,1.77
2023-03-06T11:14:27.510Z,2.55
2023-03-06T11:16:54.193Z,1.95
2023-03-06T11:19:26.539Z,4.68
2023-03-06T11:22:16.488Z,4.00
2023-03-06T11:24:48.409Z,1.35
2023-03-06T11:27:34.714Z,2.67
2023-03-06T11:30:05.934Z,2.33
2023-03-06T11:33:01.329Z,2.05
2023-03-06T11:35:35.721Z,3.88
2023-03-06T11:38:13.072Z,2.50
2023-03-06T11:40:54.738Z,3.90
2023-03-06T11:43:47.359Z,1.83
2023-03-06T11:46:24.915Z,3.50
2023-03-06T11:49:05.583Z,3.33
2023-03-06T11:51:38.036Z,3.90
2023-03-06T11:54:04.749Z,4.13
2023-03-06T11:57:03.616Z,2.72
2023-03-06T11:59:36.923Z,4.60
2023-03-06T12:02:43.138Z,5.18
2023-03-06T12:05:29.829Z,1.75
2023-03-06T12:08:38.792Z,5.25
2023-03-06T12:16:58.505Z,6.35
2023-03-06T12:19:46.162Z,3.00
2023-03-06T12:22:39.026Z,3.50
2023-03-06T12:25:31.771Z,4.70
2023-03-06T12:28:19.472Z,4.18
2023-03-06T12:31:07.115Z,5.47
2023-03-06T12:34:27.879Z,7.38
2023-03-06T12:37:12.852Z,4.70
2023-03-06T12:40:09.876Z,6.78
2023-03-06T12:43:15.869Z,7.10
2023-03-06T12:45:44.253Z,7.85
2023-03-06T12:48:25.680Z,4.72
2023-03-06T12:50:52.804Z,10.60
2023-03-06T12:53:27.513Z,5.90
2023-03-06T12:55:55.649Z,5.32
2023-03-06T12:58:31.045Z,5.72
2023-03-06T13:01:26.320Z,4.68
2023-03-06T13:04:29.227Z,4.45
2023-03-06T13:07:28.084Z,5.47
2023-03-06T13:10:08.817Z,7.70
2023-03-06T13:12:39.464Z,5.30
2023-03-06T13:15:35.107Z,5.13
2023-03-06T13:18:22.327Z,5.13
2023-03-06T13:20:50.283Z,6.38
2023-03-06T13:23:42.932Z,6.40
2023-03-06T13:26:31.500Z,6.75
2023-03-06T13:28:58.485Z,6.90
2023-03-06T13:31:32.796Z,8.45
2023-03-06T13:36:39.404Z,6.75
2023-03-06T13:39:10.177Z,7.95
2023-03-06T13:41:52.885Z,8.00
2023-03-06T13:44:24.926Z,9.05
2023-03-06T13:47:05.504Z,10.13
2023-03-06T13:49:33.570Z,10.68
2023-03-06T13:52:17.781Z,9.88
2023-03-06T13:55:25.364Z,9.30
2023-03-06T13:58:10.901Z,11.30
2023-03-06T14:00:55.655Z,12.13
2023-03-06T14:03:37.363Z,13.02
2023-03-06T14:06:35.407Z,10.57
2023-03-06T14:09:08.002Z,10.77
2023-03-06T14:11:36.250Z,11.43
2023-03-06T14:14:03.616Z,12.07
2023-03-06T14:16:48.875Z,11.65
2023-03-06T14:19:18.542Z,11.20
2023-03-06T14:21:44.913Z,14.10
2023-03-06T14:24:17.917Z,14.65
2023-03-06T14:26:50.349Z,10.52
2023-03-06T14:29:25.846Z,13.23
2023-03-06T14:31:55.338Z,9.82
2023-03-06T14:34:30.605Z,9.85
2023-03-06T14:37:05.651Z,9.35
2023-03-06T14:39:37.280Z,12.27
2023-03-06T14:42:25.015Z,17.73
2023-03-06T14:45:19.610Z,20.20
2023-03-06T14:47:50.905Z,11.45
2023-03-06T14:50:28.030Z,22.75
2023-03-06T14:53:06.680Z,25.95
2023-03-06T14:55:35.479Z,14.93
2023-03-06T14:58:15.341Z,10.50
2023-03-06T15:00:45.065Z,16.27
2023-03-06T15:03:19.282Z,7.32
2023-03-06T15:05:47.137Z,9.20
2023-03-06T15:10:57.138Z,9.52
2023-03-06T15:13:26.491Z,9.73
2023-03-06T15:16:25.019Z,9.88
2023-03-06T15:18:55.903Z,8.48
2023-03-06T15:21:23.888Z,10.57
2023-03-06T15:23:52.712Z,9.35
2023-03-06T15:26:29.527Z,11.25
2023-03-06T15:29:09.050Z,8.32
2023-03-06T15:31:45.112Z,9.70
2023-03-06T15:34:11.448Z,8.38
2023-03-06T15:36:48.959Z,9.27
2023-03-06T15:39:41.381Z,10.57
2023-03-06T15:42:19.318Z,10.02
2023-03-06T15:45:15.929Z,8.90
2023-03-06T15:47:43.818Z,9.55
2023-03-06T15:50:20.628Z,9.63
2023-03-06T15:52:48.220Z,8.27
2023-03-06T15:55:17.129Z,9.35
2023-03-06T15:57:59.715Z,7.57
2023-03-06T16:00:29.268Z,10.90
2023-03-06T16:02:57.592Z,10.73
2023-03-06T16:05:25.745Z,11.65
2023-03-06T16:07:52.220Z,12.77
2023-03-06T16:10:21.716Z,11.82
2023-03-06T16:12:51.223Z,15.18
2023-03-06T16:15:29.113Z,15.93
2023-03-06T16:17:59.890Z,13.38
2023-03-06T16:20:28.510Z,14.82
2023-03-06T16:22:55.308Z,21.35
2023-03-06T16:25:23.592Z,19.08
2023-03-06T16:27:55.480Z,17.80
2023-03-06T16:30:23.222Z,17.92
2023-03-06T16:32:49.677Z,22.65
2023-03-06T16:35:18.369Z,21.10
2023-03-06T16:37:46.491Z,20.50
2023-03-06T16:40:32.242Z,20.88
2023-03-06T16:42:58.593Z,21.70
2023-03-06T16:45:25.010Z,19.55
2023-03-06T16:47:51.790Z,19.83
2023-03-06T16:50:30.060Z,23.73
2023-03-06T16:52:57.911Z,20.50
2023-03-06T16:55:26.387Z,20.83
2023-03-06T16:57:53.655Z,21.70
2023-03-06T17:00:22.412Z,23.30
2023-03-06T17:02:49.173Z,22.05
2023-03-06T17:05:15.749Z,21.13
2023-03-06T17:07:42.418Z,20.55
2023-03-06T17:10:12.440Z,20.30
2023-03-06T17:12:39.265Z,21.30
2023-03-06T17:15:07.024Z,21.23
2023-03-06T17:17:33.958Z,24.35
2023-03-06T17:20:00.918Z,21.92
2023-03-06T17:22:27.785Z,21.63
2023-03-06T17:24:54.410Z,26.52
2023-03-06T17:27:22.775Z,20.20
2023-03-06T17:29:49.217Z,20.50
2023-03-06T17:32:15.734Z,20.15
2023-03-06T17:34:42.265Z,20.15
2023-03-06T17:37:08.735Z,20.88
2023-03-06T17:39:37.250Z,20.05
2023-03-06T17:42:04.509Z,23.15
2023-03-06T17:44:32.141Z,21.27
2023-03-06T17:46:58.688Z,24.15
2023-03-06T17:49:25.330Z,22.55
2023-03-06T17:51:52.598Z,17.55
2023-03-06T17:54:19.144Z,21.55
2023-03-06T17:56:45.510Z,19.77
2023-03-06T17:59:11.874Z,24.27
2023-03-06T18:01:38.311Z,22.70
2023-03-06T18:04:04.876Z,21.42
2023-03-06T18:06:33.444Z,19.23
2023-03-06T18:09:00.728Z,20.55
2023-03-06T18:11:27.724Z,23.45
2023-03-06T18:13:54.146Z,19.27
2023-03-06T18:16:22.975Z,21.02
2023-03-06T18:18:56.757Z,22.02
2023-03-06T18:21:24.396Z,24.48
2023-03-06T18:23:51.134Z,21.30
2023-03-06T18:26:26.655Z,26.02
2023-03-06T18:29:01.221Z,19.83
2023-03-06T18:31:33.743Z,25.40
2023-03-06T18:34:03.667Z,24.33
2023-03-06T18:36:32.674Z,24.50
2023-03-06T18:39:01.971Z,27.25
2023-03-06T18:41:28.371Z,24.00
2023-03-06T18:43:56.276Z,23.58
2023-03-06T18:46:23.390Z,24.77
2023-03-06T18:48:50.108Z,23.63
2023-03-06T18:51:17.123Z,24.05
2023-03-06T18:53:44.021Z,18.63
2023-03-06T18:56:16.700Z,23.67
2023-03-06T18:58:44.261Z,22.65
2023-03-06T19:01:10.680Z,24.08
2023-03-06T19:03:37.537Z,25.73
2023-03-06T19:06:09.202Z,21.83
2023-03-06T19:08:37.004Z,22.73
2023-03-06T19:11:06.048Z,27.95
2023-03-06T19:13:32.650Z,26.42
2023-03-06T19:15:59.400Z,28.48
2023-03-06T19:18:27.555Z,23.42
2023-03-06T19:23:22.066Z,26.90
2023-03-06T19:25:58.648Z,26.77
2023-03-06T19:28:25.859Z,25.63
2023-03-06T19:30:52.617Z,24.30
2023-03-06T19:33:19.749Z,22.50
2023-03-06T19:35:46.369Z,23.98
2023-03-06T19:38:13.714Z,25.60
2023-03-06T19:40:40.053Z,27.90
2023-03-06T19:43:06.494Z,22.73
2023-03-06T19:45:32.887Z,30.50
2023-03-06T19:48:00.907Z,29.65
2023-03-06T19:50:30.698Z,24.17
2023-03-06T19:52:57.545Z,27.85
2023-03-06T19:55:26.267Z,32.30
2023-03-06T19:57:53.047Z,25.75
2023-03-06T20:00:19.785Z,29.45
2023-03-06T20:02:46.219Z,30.92
2023-03-06T20:05:12.763Z,27.30
2023-03-06T20:07:39.114Z,23.23
2023-03-06T20:10:05.730Z,25.40
2023-03-06T20:12:33.181Z,29.65
2023-03-06T20:14:59.881Z,29.23
2023-03-06T20:17:26.574Z,25.65
2023-03-06T20:19:53.149Z,33.17
2023-03-06T20:22:19.767Z,34.78
2023-03-06T20:24:46.311Z,24.80
2023-03-06T20:27:13.024Z,33.90
2023-03-06T20:29:44.463Z,35.10
2023-03-06T20:32:11.793Z,33.80
2023-03-06T20:34:38.979Z,29.27
2023-03-06T20:37:09.323Z,32.80
2023-03-06T20:39:35.896Z,30.67
2023-03-06T20:42:03.721Z,29.02
2023-03-06T20:44:30.580Z,27.02
2023-03-06T20:46:57.052Z,28.52
2023-03-06T20:49:24.633Z,33.42
2023-03-06T20:51:52.001Z,27.02
2023-03-06T20:54:18.445Z,30.23
2023-03-06T20:56:48.058Z,32.47
2023-03-06T20:59:15.054Z,26.17
2023-03-06T21:01:44.080Z,30.52
2023-03-06T21:04:15.921Z,26.27
2023-03-06T21:06:46.863Z,27.80
2023-03-06T21:09:15.827Z,30.65
2023-03-06T21:11:42.467Z,27.85
2023-03-06T21:14:08.885Z,28.92
2023-03-06T21:16:35.927Z,23.83
2023-03-06T21:19:02.384Z,23.48
2023-03-06T21:21:31.370Z,28.42
2023-03-06T21:23:58.197Z,28.55
2023-03-06T21:26:26.957Z,25.50
2023-03-06T21:28:53.500Z,26.55
2023-03-06T21:31:22.153Z,32.35
2023-03-06T21:33:49.865Z,30.48
2023-03-06T21:36:18.580Z,24.58
2023-03-06T21:38:45.016Z,20.83
2023-03-06T21:41:14.998Z,20.75
2023-03-06T21:43:42.675Z,26.63
2023-03-06T21:46:09.505Z,24.05
2023-03-06T21:48:36.245Z,24.50
2023-03-06T21:51:10.797Z,26.45
2023-03-06T21:53:37.790Z,29.35
2023-03-06T21:56:04.859Z,22.35
2023-03-06T21:58:31.572Z,20.98
2023-03-06T22:00:58.047Z,19.83
2023-03-06T22:03:24.747Z,24.02
2023-03-06T22:05:52.222Z,23.98
2023-03-06T22:08:21.440Z,19.48
2023-03-06T22:10:48.946Z,21.08
2023-03-06T22:13:15.792Z,17.92
2023-03-06T22:15:52.934Z,19.95
2023-03-06T22:18:20.127Z,18.95
2023-03-06T22:20:46.728Z,19.90
2023-03-06T22:23:13.187Z,15.43
2023-03-06T22:25:39.516Z,18.33
2023-03-06T22:28:06.307Z,15.43
2023-03-06T22:30:32.787Z,15.93
2023-03-06T22:32:59.263Z,13.63
2023-03-06T22:35:25.724Z,12.93
2023-03-06T22:37:52.082Z,14.23
2023-03-06T22:40:18.860Z,11.75
2023-03-06T22:42:45.236Z,10.98
2023-03-06T22:45:11.834Z,12.60
2023-03-06T22:47:38.577Z,12.52
2023-03-06T22:50:06.573Z,11.27
2023-03-06T22:52:33.413Z,10.55
2023-03-06T22:54:59.788Z,12.02
2023-03-06T22:57:26.252Z,10.95
2023-03-06T22:59:52.629Z,13.18
2023-03-06T23:02:19.199Z,10.65
2023-03-06T23:04:52.119Z,9.35
2023-03-06T23:07:20.053Z,12.50
2023-03-06T23:09:49.128Z,15.75
2023-03-06T23:12:15.588Z,11.35
2023-03-06T23:14:42.113Z,13.68
2023-03-06T23:17:09.145Z,9.70
2023-03-06T23:19:35.614Z,14.77
2023-03-06T23:22:02.096Z,11.02
2023-03-06T23:24:28.671Z,11.23
2023-03-06T23:26:55.003Z,14.27
2023-03-06T23:29:21.381Z,15.93
2023-03-06T23:31:47.817Z,13.15
2023-03-06T23:34:14.247Z,10.40
2023-03-06T23:36:41.620Z,12.50
2023-03-06T23:39:08.484Z,10.27
2023-03-06T23:41:35.009Z,10.80
2023-03-06T23:44:01.386Z,9.40
2023-03-06T23:46:27.783Z,14.82
2023-03-06T23:48:54.394Z,11.43
2023-03-06T23:51:22.539Z,19.20
2023-03-06T23:53:58.300Z,15.95
2023-03-06T23:56:26.548Z,10.75
2023-03-06T23:58:53.247Z,14.80
